createdAt,value
2022-11-04T00:00:29.860Z,5.79
2022-11-04T00:07:01.829Z,5.39
2022-11-04T00:10:08.759Z,5.18
2022-11-04T00:13:13.833Z,5.22
2022-11-04T00:16:37.839Z,4.87
2022-11-04T00:20:02.443Z,5.13
2022-11-04T00:23:26.497Z,5.40
2022-11-04T00:26:50.196Z,4.79
2022-11-04T00:29:56.565Z,4.67
2022-11-04T00:33:19.959Z,4.82
2022-11-04T00:36:27.917Z,4.71
2022-11-04T00:39:34.190Z,4.58
2022-11-04T00:42:40.208Z,4.31
2022-11-04T00:45:46.501Z,4.18
2022-11-04T00:48:52.847Z,4.96
2022-11-04T00:52:00.334Z,5.49
2022-11-04T00:55:07.861Z,5.38
2022-11-04T00:58:13.881Z,5.12
2022-11-04T01:01:21.014Z,4.73
2022-11-04T01:04:27.301Z,4.69
2022-11-04T01:07:37.402Z,4.76
2022-11-04T01:10:47.454Z,5.10
2022-11-04T01:13:53.792Z,4.86
2022-11-04T01:16:59.774Z,5.09
2022-11-04T01:20:06.686Z,4.51
2022-11-04T01:23:14.385Z,4.32
2022-11-04T01:26:23.024Z,3.59
2022-11-04T01:29:29.425Z,4.14
2022-11-04T01:32:36.089Z,4.05
2022-11-04T01:35:42.266Z,4.16
2022-11-04T01:38:50.370Z,4.83
2022-11-04T01:41:56.760Z,4.24
2022-11-04T01:45:03.405Z,4.70
2022-11-04T01:48:19.106Z,4.80
2022-11-04T01:51:25.470Z,4.21
2022-11-04T01:54:34.050Z,4.01
2022-11-04T01:57:43.242Z,4.43
2022-11-04T02:00:50.046Z,4.01
2022-11-04T02:04:20.142Z,4.04
2022-11-04T02:07:26.592Z,3.48
2022-11-04T02:10:34.723Z,4.00
2022-11-04T02:13:39.593Z,4.09
2022-11-04T02:16:49.666Z,3.63
2022-11-04T02:20:10.421Z,3.73
2022-11-04T02:23:34.537Z,3.84
2022-11-04T02:27:18.505Z,3.68
2022-11-04T02:30:27.396Z,3.58
2022-11-04T02:33:39.773Z,4.00
2022-11-04T02:36:53.962Z,4.23
2022-11-04T02:40:11.009Z,4.12
2022-11-04T02:43:25.519Z,4.12
2022-11-04T02:46:37.182Z,4.01
2022-11-04T02:49:52.404Z,4.12
2022-11-04T02:53:02.944Z,4.29
2022-11-04T02:56:11.987Z,4.51
2022-11-04T02:59:22.349Z,4.28
2022-11-04T03:02:35.914Z,3.81
2022-11-04T03:05:45.965Z,3.45
2022-11-04T03:08:54.817Z,3.14
2022-11-04T03:12:04.980Z,2.51
2022-11-04T03:15:15.799Z,2.79
2022-11-04T03:18:32.043Z,3.73
2022-11-04T03:21:43.206Z,3.29
2022-11-04T03:24:50.877Z,2.62
2022-11-04T03:28:04.442Z,2.58
2022-11-04T03:31:14.363Z,3.10
2022-11-04T03:34:21.906Z,3.14
2022-11-04T03:37:28.230Z,3.22
2022-11-04T03:40:34.927Z,3.37
2022-11-04T03:43:43.127Z,3.82
2022-11-04T03:46:49.764Z,4.12
2022-11-04T03:50:06.514Z,4.13
2022-11-04T03:53:15.365Z,3.36
2022-11-04T03:57:03.639Z,3.01
2022-11-04T04:00:13.932Z,3.55
2022-11-04T04:03:26.133Z,3.18
2022-11-04T04:06:36.842Z,3.23
2022-11-04T04:09:47.434Z,2.79
2022-11-04T04:12:57.483Z,2.98
2022-11-04T04:16:08.885Z,3.67
2022-11-04T04:19:18.409Z,3.49
2022-11-04T04:22:30.960Z,2.68
2022-11-04T04:26:05.864Z,3.05
2022-11-04T04:29:12.923Z,3.07
2022-11-04T04:32:21.730Z,3.12
2022-11-04T04:35:45.170Z,3.25
2022-11-04T04:39:10.169Z,3.33
2022-11-04T04:42:33.706Z,3.43
2022-11-04T04:45:43.619Z,3.11
2022-11-04T04:48:49.869Z,3.07
2022-11-04T04:51:55.832Z,3.10
2022-11-04T04:55:03.035Z,2.61
2022-11-04T04:58:10.705Z,2.49
2022-11-04T05:01:16.756Z,2.83
2022-11-04T05:04:23.169Z,3.20
2022-11-04T05:07:29.296Z,2.30
2022-11-04T05:10:36.937Z,1.92
2022-11-04T05:13:43.041Z,2.91
2022-11-04T05:16:49.093Z,3.38
2022-11-04T05:19:55.486Z,3.04
2022-11-04T05:23:01.774Z,2.95
2022-11-04T05:26:09.781Z,2.80
2022-11-04T05:32:26.799Z,3.17
2022-11-04T05:35:33.323Z,3.94
2022-11-04T05:38:39.720Z,3.12
2022-11-04T05:41:47.192Z,3.51
2022-11-04T05:44:53.265Z,2.49
2022-11-04T05:48:00.606Z,3.36
2022-11-04T05:51:07.076Z,4.05
2022-11-04T05:54:13.358Z,4.30
2022-11-04T05:57:20.957Z,4.29
2022-11-04T06:00:27.783Z,4.69
2022-11-04T06:03:34.140Z,5.19
2022-11-04T06:06:40.106Z,4.94
2022-11-04T06:09:46.020Z,4.94
2022-11-04T06:12:53.348Z,4.97
2022-11-04T06:15:59.275Z,5.12
2022-11-04T06:19:08.557Z,5.68
2022-11-04T06:22:17.470Z,5.07
2022-11-04T06:25:23.205Z,5.66
2022-11-04T06:28:30.773Z,6.10
2022-11-04T06:31:37.099Z,5.66
2022-11-04T06:34:43.796Z,5.85
2022-11-04T06:37:50.101Z,6.28
2022-11-04T06:40:56.054Z,6.24
2022-11-04T06:44:03.943Z,6.55
2022-11-04T06:47:11.312Z,6.71
2022-11-04T06:50:17.161Z,6.84
2022-11-04T06:53:23.362Z,7.29
2022-11-04T06:56:29.577Z,7.80
2022-11-04T06:59:37.254Z,7.77
2022-11-04T07:02:43.824Z,8.02
2022-11-04T07:05:50.157Z,8.25
2022-11-04T07:08:59.669Z,8.43
2022-11-04T07:12:06.257Z,8.65
2022-11-04T07:15:14.349Z,8.74
2022-11-04T07:18:20.374Z,9.04
2022-11-04T07:21:27.038Z,9.06
2022-11-04T07:24:33.397Z,9.05
2022-11-04T07:27:39.693Z,9.51
2022-11-04T07:30:47.226Z,9.77
2022-11-04T07:33:53.553Z,9.52
2022-11-04T07:36:59.438Z,9.53
2022-11-04T07:40:06.285Z,10.32
2022-11-04T07:43:12.521Z,10.30
2022-11-04T07:46:20.986Z,10.56
2022-11-04T07:49:27.622Z,10.33
2022-11-04T07:52:33.886Z,10.51
2022-11-04T07:55:43.370Z,10.78
2022-11-04T07:58:49.845Z,10.84
2022-11-04T08:01:57.570Z,10.98
2022-11-04T08:05:03.761Z,11.52
2022-11-04T08:08:10.053Z,11.23
2022-11-04T08:11:18.994Z,11.25
2022-11-04T08:14:25.569Z,11.64
2022-11-04T08:17:33.081Z,11.74
2022-11-04T08:20:39.603Z,11.98
2022-11-04T08:23:46.277Z,12.07
2022-11-04T08:26:52.498Z,12.29
2022-11-04T08:29:58.930Z,12.43
2022-11-04T08:33:06.844Z,12.38
2022-11-04T08:36:16.211Z,12.57
2022-11-04T08:39:22.293Z,12.61
2022-11-04T08:42:28.365Z,13.02
2022-11-04T08:45:34.428Z,13.24
2022-11-04T08:48:42.744Z,13.15
2022-11-04T08:51:49.811Z,14.09
2022-11-04T08:54:57.500Z,14.03
2022-11-04T08:58:04.544Z,13.93
2022-11-04T09:01:12.868Z,13.90
2022-11-04T09:04:20.950Z,14.49
2022-11-04T09:07:27.049Z,14.33
2022-11-04T09:10:33.105Z,14.70
2022-11-04T09:13:40.154Z,15.23
2022-11-04T09:16:46.249Z,15.50
2022-11-04T09:19:53.533Z,15.10
2022-11-04T09:22:59.965Z,15.11
2022-11-04T09:26:08.802Z,14.92
2022-11-04T09:29:15.205Z,15.27
2022-11-04T09:32:21.217Z,15.39
2022-11-04T09:35:28.828Z,15.45
2022-11-04T09:38:34.768Z,15.89
2022-11-04T09:42:12.254Z,16.07
2022-11-04T09:45:21.876Z,16.01
2022-11-04T09:48:33.319Z,16.01
2022-11-04T09:51:57.715Z,16.16
2022-11-04T09:55:12.681Z,16.47
2022-11-04T09:58:19.223Z,16.23
2022-11-04T10:01:32.442Z,16.70
2022-11-04T10:04:50.304Z,17.02
2022-11-04T10:08:19.030Z,17.17
2022-11-04T10:11:31.659Z,17.47
2022-11-04T10:15:09.054Z,17.37
2022-11-04T10:18:29.125Z,17.37
2022-11-04T10:21:47.196Z,17.17
2022-11-04T10:25:04.398Z,17.31
2022-11-04T10:28:15.156Z,17.98
2022-11-04T10:31:21.581Z,17.73
2022-11-04T10:34:33.900Z,18.07
2022-11-04T10:37:40.276Z,18.72
2022-11-04T10:40:51.108Z,18.72
2022-11-04T10:44:01.137Z,18.34
2022-11-04T10:47:19.609Z,18.82
2022-11-04T10:50:38.775Z,18.80
2022-11-04T10:53:45.333Z,18.97
2022-11-04T10:56:55.037Z,19.30
2022-11-04T11:00:02.894Z,18.76
2022-11-04T11:03:32.062Z,19.37
2022-11-04T11:06:38.946Z,19.40
2022-11-04T11:09:54.543Z,19.92
2022-11-04T11:13:04.836Z,19.51
2022-11-04T11:16:14.330Z,19.73
2022-11-04T11:19:23.158Z,20.07
2022-11-04T11:22:32.858Z,19.84
2022-11-04T11:25:45.385Z,19.91
2022-11-04T11:28:59.109Z,19.83
2022-11-04T11:32:05.706Z,20.29
2022-11-04T11:35:18.158Z,20.83
2022-11-04T11:38:27.652Z,20.63
2022-11-04T11:41:41.076Z,20.07
2022-11-04T11:44:54.454Z,19.18
2022-11-04T11:48:00.681Z,20.32
2022-11-04T11:51:21.899Z,20.42
2022-11-04T11:54:34.641Z,20.16
2022-11-04T12:01:27.765Z,18.99
2022-11-04T12:11:56.326Z,20.76
2022-11-04T12:15:20.019Z,21.02
2022-11-04T12:18:44.114Z,20.67
2022-11-04T12:22:00.671Z,20.40
2022-11-04T12:25:19.046Z,20.14
2022-11-04T12:28:32.286Z,20.79
2022-11-04T12:31:48.503Z,20.09
2022-11-04T12:35:12.206Z,20.05
2022-11-04T12:38:32.717Z,20.13
2022-11-04T12:42:19.514Z,19.76
2022-11-04T12:45:31.438Z,20.02
2022-11-04T12:49:08.899Z,20.50
2022-11-04T12:52:32.034Z,20.51
2022-11-04T12:55:49.216Z,21.27
2022-11-04T12:59:33.501Z,21.03
2022-11-04T13:02:46.207Z,21.78
2022-11-04T13:05:55.135Z,20.36
2022-11-04T13:09:07.125Z,20.02
2022-11-04T13:12:17.557Z,19.74
2022-11-04T13:15:28.665Z,19.49
2022-11-04T13:18:38.683Z,19.49
2022-11-04T13:21:44.955Z,19.42
2022-11-04T13:24:56.925Z,19.38
2022-11-04T13:28:04.583Z,19.98
2022-11-04T13:31:16.771Z,19.25
2022-11-04T13:34:34.689Z,19.26
2022-11-04T13:37:49.149Z,19.49
2022-11-04T13:41:16.132Z,19.52
2022-11-04T13:44:28.134Z,19.33
2022-11-04T13:47:38.758Z,19.35
2022-11-04T13:50:44.610Z,19.65
2022-11-04T13:53:55.182Z,19.18
2022-11-04T13:57:16.319Z,19.04
2022-11-04T14:00:25.686Z,19.26
2022-11-04T14:03:52.958Z,19.19
2022-11-04T14:07:01.875Z,19.20
2022-11-04T14:10:40.362Z,19.14
2022-11-04T14:14:20.818Z,19.12
2022-11-04T14:17:58.782Z,18.68
2022-11-04T14:21:10.402Z,18.35
2022-11-04T14:24:20.340Z,18.20
2022-11-04T14:27:34.218Z,17.69
2022-11-04T14:30:49.908Z,17.50
2022-11-04T14:33:58.008Z,17.22
2022-11-04T14:37:09.871Z,16.56
2022-11-04T14:40:27.093Z,16.43
2022-11-04T14:43:36.127Z,16.30
2022-11-04T14:46:46.670Z,16.33
2022-11-04T14:50:01.359Z,16.10
2022-11-04T14:53:14.631Z,15.97
2022-11-04T14:56:24.728Z,16.14
2022-11-04T14:59:31.560Z,15.99
2022-11-04T15:02:39.308Z,15.90
2022-11-04T15:05:50.881Z,15.59
2022-11-04T15:08:57.780Z,15.66
2022-11-04T15:12:30.438Z,15.66
2022-11-04T15:15:40.151Z,15.09
2022-11-04T15:18:48.307Z,15.02
2022-11-04T15:21:54.610Z,14.97
2022-11-04T15:25:06.013Z,14.83
2022-11-04T15:28:19.771Z,14.67
2022-11-04T15:31:27.886Z,14.13
2022-11-04T15:34:37.494Z,14.26
2022-11-04T15:37:45.186Z,14.28
2022-11-04T15:40:52.536Z,14.35
2022-11-04T15:43:58.197Z,14.16
2022-11-04T15:47:21.636Z,14.02
2022-11-04T15:50:32.045Z,14.01
2022-11-04T15:53:48.636Z,13.83
2022-11-04T15:56:56.378Z,13.70
2022-11-04T16:00:07.266Z,13.70
2022-11-04T16:03:20.675Z,13.36
2022-11-04T16:06:39.566Z,13.25
2022-11-04T16:09:48.501Z,12.72
2022-11-04T16:12:57.917Z,12.87
2022-11-04T16:16:15.407Z,13.09
2022-11-04T16:19:23.790Z,12.83
2022-11-04T16:22:33.459Z,12.87
2022-11-04T16:25:40.216Z,13.06
2022-11-04T16:28:46.739Z,13.61
2022-11-04T16:32:15.967Z,13.23
2022-11-04T16:35:24.068Z,12.76
2022-11-04T16:38:32.126Z,12.69
2022-11-04T16:41:40.561Z,12.34
2022-11-04T16:44:52.033Z,12.61
2022-11-04T16:47:58.928Z,12.61
2022-11-04T16:51:05.570Z,12.26
2022-11-04T16:54:13.052Z,12.08
2022-11-04T16:57:19.458Z,11.88
2022-11-04T17:00:28.159Z,11.93
2022-11-04T17:03:34.139Z,12.17
2022-11-04T17:06:40.631Z,11.85
2022-11-04T17:09:48.478Z,11.68
2022-11-04T17:12:55.031Z,11.73
2022-11-04T17:16:01.801Z,11.97
2022-11-04T17:19:12.188Z,11.52
2022-11-04T17:22:18.571Z,11.68
2022-11-04T17:25:28.047Z,11.40
2022-11-04T17:28:34.064Z,11.47
2022-11-04T17:31:40.191Z,11.30
2022-11-04T17:34:47.085Z,11.19
2022-11-04T17:37:54.188Z,11.28
2022-11-04T17:41:33.795Z,11.24
2022-11-04T17:44:40.139Z,11.36
2022-11-04T17:47:46.131Z,11.44
2022-11-04T17:50:52.254Z,11.28
2022-11-04T17:53:58.742Z,11.24
2022-11-04T17:57:07.447Z,11.14
2022-11-04T18:00:15.765Z,11.00
2022-11-04T18:03:21.684Z,10.98
2022-11-04T18:06:31.568Z,11.10
2022-11-04T18:09:39.355Z,10.93
2022-11-04T18:12:46.996Z,10.78
2022-11-04T18:15:53.049Z,10.64
2022-11-04T18:19:00.105Z,10.64
2022-11-04T18:22:06.277Z,10.75
2022-11-04T18:25:13.791Z,10.30
2022-11-04T18:28:21.624Z,10.51
2022-11-04T18:31:29.954Z,10.35
2022-11-04T18:34:36.281Z,10.23
2022-11-04T18:37:46.976Z,10.00
2022-11-04T18:40:55.270Z,10.04
2022-11-04T18:44:02.921Z,10.17
2022-11-04T18:47:09.374Z,10.14
2022-11-04T18:50:15.630Z,9.93
2022-11-04T18:53:26.852Z,10.13
2022-11-04T18:56:33.430Z,10.16
2022-11-04T18:59:41.260Z,10.00
2022-11-04T19:02:47.510Z,9.57
2022-11-04T19:05:54.105Z,9.82
2022-11-04T19:09:13.315Z,9.81
2022-11-04T19:12:46.485Z,10.02
2022-11-04T19:15:54.250Z,10.46
2022-11-04T19:19:01.839Z,10.28
2022-11-04T19:22:08.249Z,10.23
2022-11-04T19:25:14.632Z,10.25
2022-11-04T19:28:37.289Z,10.62
2022-11-04T19:31:48.911Z,10.91
2022-11-04T19:34:55.081Z,10.81
2022-11-04T19:38:01.944Z,9.77
2022-11-04T19:41:30.451Z,9.46
2022-11-04T19:44:35.778Z,9.56
2022-11-04T19:47:43.344Z,9.79
2022-11-04T19:50:50.712Z,10.01
2022-11-04T19:53:57.452Z,10.13
2022-11-04T19:57:03.555Z,10.01
2022-11-04T20:00:12.083Z,10.00
2022-11-04T20:03:19.608Z,9.88
2022-11-04T20:06:25.501Z,9.92
2022-11-04T20:09:31.507Z,9.60
2022-11-04T20:12:55.329Z,9.58
2022-11-04T20:16:01.248Z,9.71
2022-11-04T20:19:10.549Z,9.59
2022-11-04T20:22:17.278Z,9.32
2022-11-04T20:25:23.538Z,9.31
2022-11-04T20:28:32.515Z,9.17
2022-11-04T20:31:39.460Z,8.59
2022-11-04T20:34:49.343Z,7.90
2022-11-04T20:37:57.460Z,8.55
2022-11-04T20:41:07.533Z,8.48
2022-11-04T20:44:15.436Z,8.42
2022-11-04T20:47:22.335Z,8.55
2022-11-04T20:50:29.598Z,8.72
2022-11-04T20:53:36.567Z,8.57
2022-11-04T20:56:44.240Z,8.24
2022-11-04T20:59:50.621Z,7.99
2022-11-04T21:02:56.577Z,8.00
2022-11-04T21:06:04.093Z,8.16
2022-11-04T21:09:12.841Z,7.85
2022-11-04T21:12:19.438Z,7.73
2022-11-04T21:15:44.439Z,7.66
2022-11-04T21:18:50.444Z,7.51
2022-11-04T21:21:58.090Z,7.63
2022-11-04T21:25:04.767Z,7.86
2022-11-04T21:28:11.668Z,7.90
2022-11-04T21:31:18.114Z,7.88
2022-11-04T21:34:24.612Z,7.32
2022-11-04T21:37:36.781Z,6.70
2022-11-04T21:40:44.366Z,6.75
2022-11-04T21:43:55.359Z,6.99
2022-11-04T21:47:01.522Z,7.09
2022-11-04T21:50:11.385Z,7.55
2022-11-04T21:53:21.690Z,7.72
2022-11-04T21:56:29.723Z,7.83
2022-11-04T21:59:36.317Z,7.95
2022-11-04T22:02:43.889Z,7.05
2022-11-04T22:05:58.357Z,6.84
2022-11-04T22:09:06.636Z,6.57
2022-11-04T22:12:12.570Z,6.48
2022-11-04T22:15:39.611Z,6.84
2022-11-04T22:18:46.928Z,7.32
2022-11-04T22:21:52.926Z,7.44
2022-11-04T22:25:04.256Z,6.93
2022-11-04T22:28:10.641Z,7.03
2022-11-04T22:31:19.238Z,6.82
2022-11-04T22:34:26.439Z,7.06
2022-11-04T22:37:32.633Z,7.04
2022-11-04T22:40:40.550Z,6.82
2022-11-04T22:43:46.683Z,6.55
2022-11-04T22:46:52.864Z,7.06
2022-11-04T22:49:58.886Z,6.71
2022-11-04T22:53:05.108Z,6.57
2022-11-04T22:56:14.949Z,5.98
2022-11-04T22:59:21.239Z,6.30
2022-11-04T23:02:29.983Z,6.35
2022-11-04T23:05:38.521Z,6.24
2022-11-04T23:08:45.182Z,5.77
2022-11-04T23:12:09.739Z,6.13
2022-11-04T23:15:33.252Z,6.53
2022-11-04T23:18:45.253Z,6.84
2022-11-04T23:22:08.885Z,6.94
2022-11-04T23:25:15.410Z,5.59
2022-11-04T23:28:40.488Z,5.74
2022-11-04T23:31:46.444Z,5.72
2022-11-04T23:35:10.180Z,5.80
2022-11-04T23:38:16.229Z,6.39
2022-11-04T23:41:39.713Z,6.27
2022-11-04T23:45:06.691Z,6.49
2022-11-04T23:48:30.528Z,6.39
2022-11-04T23:51:54.146Z,6.66
2022-11-04T23:55:17.916Z,6.41
2022-11-04T23:58:41.705Z,6.43
